Time;durP1;ratioP1;P1;durP2;ratioP2;P2;SDS_P1;SDS_P2;PMS_P1;PMS_P2;Temp;Humidity;BMP_temperature;BMP_pressure;BME280_temperature;BME280_humidity;BME280_pressure;Samples;Min_cycle;Max_cycle;Signal;HPM_P1;HPM_P2
2022/10/09 00:01:48;;;;;;;11.65;5.85;;;;;;;6.48;100.00;101320.38;5108906;28;20226;-73
2022/10/09 00:04:15;;;;;;;9.73;6.18;;;;;;;6.41;100.00;101325.84;5108801;28;20200;-73
2022/10/09 00:06:41;;;;;;;7.28;6.13;;;;;;;6.43;100.00;101319.56;5089565;28;20193;-72
2022/10/09 00:09:09;;;;;;;7.40;6.03;;;;;;;6.34;100.00;101325.03;5087378;28;20303;-73
2022/10/09 00:11:36;;;;;;;15.27;9.07;;;;;;;6.28;100.00;101318.88;5089111;28;20232;-75
2022/10/09 00:14:03;;;;;;;13.57;7.05;;;;;;;6.31;100.00;101318.81;5084563;28;20205;-73
2022/10/09 00:16:30;;;;;;;10.75;6.65;;;;;;;6.30;100.00;101317.94;5098099;28;20197;-73
2022/10/09 00:18:57;;;;;;;9.20;7.03;;;;;;;6.25;100.00;101323.34;5100340;28;20196;-72
2022/10/09 00:21:26;;;;;;;11.45;6.63;;;;;;;6.16;100.00;101323.47;5095349;28;20223;-72
2022/10/09 00:23:54;;;;;;;8.85;6.70;;;;;;;6.28;100.00;101318.88;5094556;28;20243;-74
2022/10/09 00:26:22;;;;;;;8.25;6.38;;;;;;;6.17;100.00;101316.31;5079499;28;20222;-74
2022/10/09 00:28:49;;;;;;;11.77;7.15;;;;;;;6.12;100.00;101319.06;5074255;28;20239;-74
2022/10/09 00:31:16;;;;;;;8.93;6.30;;;;;;;6.14;100.00;101319.06;5074641;28;20735;-73
2022/10/09 00:33:43;;;;;;;9.55;6.80;;;;;;;6.15;100.00;101318.13;5075469;28;20193;-74
2022/10/09 00:36:12;;;;;;;8.10;6.45;;;;;;;6.15;100.00;101313.69;5075001;28;20465;-75
2022/10/09 00:38:39;;;;;;;8.48;6.20;;;;;;;6.17;100.00;101313.66;5074802;28;20201;-75
2022/10/09 00:41:06;;;;;;;10.43;5.97;;;;;;;6.18;100.00;101318.13;5074653;28;20217;-73
2022/10/09 00:43:42;;;;;;;8.77;6.05;;;;;;;6.21;100.00;101320.75;5074323;28;20211;-74
2022/10/09 00:46:20;;;;;;;10.18;6.35;;;;;;;6.19;100.00;101317.19;5091970;28;20188;-73
2022/10/09 00:48:50;;;;;;;7.57;6.32;;;;;;;6.15;100.00;101308.34;5095700;28;20208;-73
2022/10/09 00:51:16;;;;;;;10.27;6.35;;;;;;;6.09;100.00;101313.75;5095165;28;20226;-74
2022/10/09 00:53:43;;;;;;;9.25;5.97;;;;;;;5.95;100.00;101318.41;5096349;28;20200;-73
2022/10/09 00:56:09;;;;;;;12.73;6.80;;;;;;;6.01;100.00;101316.50;5078421;28;20200;-74
2022/10/09 00:58:37;;;;;;;7.38;6.60;;;;;;;6.02;100.00;101320.97;5075217;28;20223;-75
2022/10/09 01:01:04;;;;;;;7.90;6.93;;;;;;;5.82;100.00;101315.81;5079356;28;20224;-73
2022/10/09 01:03:31;;;;;;;7.30;6.10;;;;;;;5.80;100.00;101316.75;5078389;28;20201;-74
2022/10/09 01:06:09;;;;;;;7.78;6.18;;;;;;;5.75;100.00;101314.13;5077610;28;20581;-73
2022/10/09 01:08:41;;;;;;;11.45;6.22;;;;;;;5.67;100.00;101317.78;5076031;28;20614;-75
2022/10/09 01:11:17;;;;;;;10.68;7.43;;;;;;;5.77;100.00;101314.13;5075121;28;20220;-73
2022/10/09 01:13:50;;;;;;;11.65;6.75;;;;;;;5.77;100.00;101312.31;5075325;28;20196;-74
2022/10/09 01:16:24;;;;;;;11.77;6.85;;;;;;;5.75;100.00;101315.91;5093917;28;20638;-74
2022/10/09 01:18:57;;;;;;;10.32;6.80;;;;;;;5.75;100.00;101308.78;5096533;28;20603;-73
2022/10/09 01:21:31;;;;;;;11.77;6.32;;;;;;;5.84;100.00;101310.47;5096006;28;20223;-75
2022/10/09 01:24:14;;;;;;;8.23;6.30;;;;;;;5.73;100.00;101293.66;5096394;28;20190;-73
2022/10/09 01:26:56;;;;;;;12.18;6.55;;;;;;;5.74;100.00;101306.97;5075025;28;20631;-75
2022/10/09 01:29:26;;;;;;;11.57;6.70;;;;;;;5.72;100.00;101302.56;5074184;28;20247;-74
2022/10/09 01:31:54;;;;;;;9.02;6.35;;;;;;;5.68;100.00;101307.06;5074719;28;20606;-72
2022/10/09 01:34:23;;;;;;;8.07;6.30;;;;;;;5.53;100.00;101308.09;5074331;28;20216;-73
2022/10/09 01:36:51;;;;;;;7.93;6.28;;;;;;;5.56;100.00;101301.84;5078849;28;20205;-73
2022/10/09 01:39:21;;;;;;;7.20;6.05;;;;;;;5.50;100.00;101299.25;5082887;28;20205;-71
2022/10/09 01:41:51;;;;;;;7.07;5.80;;;;;;;5.48;100.00;101285.91;5102115;28;20247;-74
2022/10/09 01:44:19;;;;;;;11.00;6.93;;;;;;;5.49;100.00;101298.34;5094220;28;20191;-74
2022/10/09 01:46:47;;;;;;;11.65;6.88;;;;;;;5.49;100.00;101287.66;5094270;28;20204;-73
2022/10/09 01:49:29;;;;;;;13.52;6.60;;;;;;;5.44;100.00;101286.81;5093595;28;20228;-74
2022/10/09 01:52:01;;;;;;;8.70;6.72;;;;;;;5.50;100.00;101293.91;5093375;28;20247;-73
2022/10/09 01:54:36;;;;;;;8.98;7.13;;;;;;;5.41;100.00;101292.22;5092710;28;20184;-73
2022/10/09 01:57:08;;;;;;;9.07;7.95;;;;;;;5.38;100.00;101286.88;5092683;28;20186;-73
2022/10/09 01:59:38;;;;;;;11.18;7.60;;;;;;;5.42;100.00;101280.59;5093182;28;20191;-73
2022/10/09 02:02:06;;;;;;;12.63;7.43;;;;;;;5.34;100.00;101279.81;5092592;28;20227;-74
2022/10/09 02:04:33;;;;;;;9.02;7.70;;;;;;;5.20;100.00;101282.59;5092624;28;20202;-73
2022/10/09 02:07:00;;;;;;;18.92;8.40;;;;;;;5.05;100.00;101280.09;5092062;28;20644;-73
2022/10/09 02:09:28;;;;;;;12.38;7.55;;;;;;;5.18;100.00;101285.31;5091781;28;20219;-73
2022/10/09 02:12:00;;;;;;;11.82;7.70;;;;;;;5.03;100.00;101277.41;5092189;28;20216;-72
2022/10/09 02:14:27;;;;;;;10.00;7.82;;;;;;;5.09;100.00;101280.03;5093178;28;20196;-74
2022/10/09 02:17:02;;;;;;;9.65;7.72;;;;;;;5.09;100.00;101282.72;5093356;28;20207;-75
2022/10/09 02:19:34;;;;;;;11.43;8.30;;;;;;;4.98;100.00;101276.56;5092272;28;20290;-74
2022/10/09 02:22:07;;;;;;;12.23;9.65;;;;;;;4.75;100.00;101280.31;5092523;28;20226;-73
2022/10/09 02:24:37;;;;;;;11.73;9.55;;;;;;;4.72;100.00;101284.78;5092178;28;20187;-74
2022/10/09 02:27:05;;;;;;;17.40;10.27;;;;;;;4.94;100.00;101275.69;5092275;28;20294;-75
2022/10/09 02:29:33;;;;;;;11.70;9.10;;;;;;;5.04;100.00;101273.84;5093927;28;20220;-73
2022/10/09 02:32:00;;;;;;;13.65;10.57;;;;;;;5.08;100.00;101272.03;5095461;28;20235;-73
2022/10/09 02:34:26;;;;;;;17.85;10.88;;;;;;;5.16;100.00;101271.06;5095485;28;20614;-73
2022/10/09 02:36:53;;;;;;;12.20;10.25;;;;;;;5.22;100.00;101275.44;5094705;28;20221;-73
2022/10/09 02:39:20;;;;;;;15.82;10.68;;;;;;;5.20;100.00;101272.81;5096281;28;20206;-74
2022/10/09 02:41:46;;;;;;;11.65;10.25;;;;;;;5.32;100.00;101278.94;5094541;28;20218;-73
2022/10/09 02:44:13;;;;;;;12.18;9.63;;;;;;;5.27;100.00;101276.31;5093394;28;20200;-74
2022/10/09 02:46:40;;;;;;;13.32;10.20;;;;;;;5.27;100.00;101273.66;5095943;28;20196;-74
2022/10/09 02:49:07;;;;;;;14.20;10.30;;;;;;;5.33;100.00;101272.69;5093861;28;20719;-75
2022/10/09 02:51:34;;;;;;;12.05;9.95;;;;;;;5.36;100.00;101273.56;5094644;28;20227;-73
2022/10/09 02:54:01;;;;;;;14.23;10.70;;;;;;;5.36;100.00;101270.88;5097331;28;20227;-73
2022/10/09 02:56:28;;;;;;;14.27;10.70;;;;;;;5.51;100.00;101280.50;5099509;28;20733;-75
2022/10/09 02:58:55;;;;;;;13.98;10.80;;;;;;;5.49;100.00;101276.97;5098165;28;20201;-72
2022/10/09 03:01:25;;;;;;;17.00;11.70;;;;;;;5.50;100.00;101273.41;5098962;28;20219;-72
2022/10/09 03:03:53;;;;;;;15.60;12.13;;;;;;;5.54;100.00;101280.50;5098587;28;20196;-74
2022/10/09 03:06:22;;;;;;;19.58;12.20;;;;;;;5.60;100.00;101282.22;5098153;28;20204;-73
2022/10/09 03:08:50;;;;;;;16.00;13.05;;;;;;;5.55;100.00;101286.72;5097405;28;20238;-75
2022/10/09 03:11:19;;;;;;;15.93;11.50;;;;;;;5.58;100.00;101284.88;5097825;28;20318;-73
2022/10/09 03:13:45;;;;;;;13.52;12.13;;;;;;;5.67;100.00;101278.56;5097500;28;20212;-73
2022/10/09 03:16:14;;;;;;;21.80;13.73;;;;;;;5.72;100.00;101283.84;5097640;28;20240;-73
2022/10/09 03:18:41;;;;;;;19.92;13.27;;;;;;;5.77;100.00;101276.69;5097075;28;20638;-74
2022/10/09 03:21:12;;;;;;;20.25;14.90;;;;;;;5.77;100.00;101277.56;5098339;28;20220;-74
2022/10/09 03:23:39;;;;;;;15.70;12.80;;;;;;;5.78;100.00;101278.44;5105449;28;20192;-74
2022/10/09 03:26:08;;;;;;;15.48;13.43;;;;;;;5.83;100.00;101282.84;5106029;28;20196;-72
2022/10/09 03:28:37;;;;;;;17.20;13.80;;;;;;;5.87;100.00;101285.47;5104243;28;20235;-74
2022/10/09 03:31:04;;;;;;;24.02;14.40;;;;;;;5.80;100.00;101284.66;5104129;28;20223;-74
2022/10/09 03:33:31;;;;;;;21.15;11.45;;;;;;;5.79;100.00;101280.22;5102452;28;20220;-74
2022/10/09 03:35:57;;;;;;;16.70;11.85;;;;;;;5.77;100.00;101288.25;5100088;28;20204;-75
2022/10/09 03:38:25;;;;;;;15.18;12.30;;;;;;;5.69;100.00;101290.13;5098814;28;20200;-75
2022/10/09 03:40:52;;;;;;;15.65;12.93;;;;;;;5.70;100.00;101286.56;5099779;28;20224;-73
2022/10/09 03:43:19;;;;;;;13.32;11.25;;;;;;;5.66;100.00;101287.50;5096272;28;20203;-73
2022/10/09 03:45:46;;;;;;;18.25;11.80;;;;;;;5.71;100.00;101290.13;5097000;28;20210;-73
2022/10/09 03:48:13;;;;;;;16.25;11.40;;;;;;;5.69;100.00;101292.78;5096021;28;20200;-74
2022/10/09 03:50:40;;;;;;;15.80;12.07;;;;;;;5.70;100.00;101297.25;5095844;28;20224;-73
2022/10/09 03:53:09;;;;;;;14.50;11.88;;;;;;;5.54;100.00;101293.84;5095512;28;20206;-74
2022/10/09 03:55:37;;;;;;;15.10;12.73;;;;;;;5.67;100.00;101285.69;5094946;28;20614;-73
2022/10/09 03:58:04;;;;;;;13.35;11.05;;;;;;;5.55;100.00;101295.63;5094685;28;20367;-75
2022/10/09 04:00:31;;;;;;;15.63;12.10;;;;;;;5.50;100.00;101297.47;5094405;28;20728;-74
2022/10/09 04:02:57;;;;;;;13.75;10.90;;;;;;;5.46;100.00;101297.50;5093931;28;20192;-74
2022/10/09 04:05:24;;;;;;;17.65;12.10;;;;;;;5.43;100.00;101299.31;5094045;28;20192;-72
2022/10/09 04:07:51;;;;;;;13.02;10.75;;;;;;;5.40;100.00;101301.09;5094164;28;20217;-73
2022/10/09 04:10:17;;;;;;;14.35;10.88;;;;;;;5.37;100.00;101291.34;5094096;28;20219;-73
2022/10/09 04:12:45;;;;;;;14.88;11.05;;;;;;;5.48;100.00;101293.03;5094198;28;20582;-73
2022/10/09 04:15:12;;;;;;;13.02;11.73;;;;;;;5.48;100.00;101293.91;5094263;28;20204;-73
2022/10/09 04:17:38;;;;;;;16.63;12.80;;;;;;;5.41;100.00;101294.88;5093953;28;20210;-73
2022/10/09 04:20:05;;;;;;;15.88;11.65;;;;;;;5.43;100.00;101295.75;5107466;28;20208;-72
2022/10/09 04:22:32;;;;;;;16.63;12.02;;;;;;;5.38;100.00;101297.56;5101905;28;20208;-72
2022/10/09 04:24:58;;;;;;;17.27;11.30;;;;;;;5.14;100.00;101293.34;5096116;28;20492;-75
2022/10/09 04:27:25;;;;;;;15.75;12.65;;;;;;;5.16;100.00;101287.09;5095684;28;20200;-73
2022/10/09 04:29:53;;;;;;;10.95;9.85;;;;;;;5.28;100.00;101293.22;5095209;28;20219;-73
2022/10/09 04:32:19;;;;;;;14.00;11.48;;;;;;;5.26;100.00;101293.22;5108466;22;20242;-74
2022/10/09 04:34:46;;;;;;;51.90;28.33;;;;;;;5.22;100.00;101286.13;5095939;28;20206;-74
2022/10/09 04:37:12;;;;;;;17.90;13.55;;;;;;;5.22;100.00;101294.16;5095339;28;20732;-74
2022/10/09 04:39:39;;;;;;;13.75;11.88;;;;;;;5.27;100.00;101299.44;5095120;28;20196;-74
2022/10/09 04:42:06;;;;;;;17.65;12.05;;;;;;;5.25;100.00;101287.91;5095036;28;20735;-75
2022/10/09 04:44:32;;;;;;;12.38;10.57;;;;;;;5.29;100.00;101294.97;5094428;28;20577;-75
2022/10/09 04:47:00;;;;;;;13.80;11.57;;;;;;;5.32;100.00;101297.66;5094973;28;20415;-74
2022/10/09 04:49:27;;;;;;;20.75;12.45;;;;;;;5.37;100.00;101290.47;5098110;28;20202;-75
2022/10/09 04:51:53;;;;;;;23.70;16.58;;;;;;;5.37;100.00;101296.69;5088270;28;20600;-73
2022/10/09 04:54:20;;;;;;;23.80;17.00;;;;;;;5.39;100.00;101292.22;5075012;28;20208;-75
2022/10/09 04:56:46;;;;;;;17.52;13.80;;;;;;;5.47;100.00;101288.56;5075005;28;20200;-74
2022/10/09 04:59:13;;;;;;;18.00;11.98;;;;;;;5.39;100.00;101292.22;5091175;28;20669;-73
2022/10/09 05:01:40;;;;;;;16.27;12.00;;;;;;;5.34;100.00;101290.50;5075241;28;20782;-74
2022/10/09 05:04:08;;;;;;;15.70;12.00;;;;;;;5.29;100.00;101281.63;5083922;28;20642;-75
2022/10/09 05:06:35;;;;;;;14.43;11.20;;;;;;;5.32;100.00;101284.28;5094398;28;20299;-75
2022/10/09 05:09:01;;;;;;;16.38;12.25;;;;;;;5.33;100.00;101280.69;5094113;28;20692;-74
2022/10/09 05:11:28;;;;;;;15.95;12.77;;;;;;;5.27;100.00;101283.41;5094427;28;20227;-74
2022/10/09 05:13:57;;;;;;;13.45;11.13;;;;;;;5.23;100.00;101280.78;5095088;28;20200;-74
2022/10/09 05:16:26;;;;;;;18.52;12.52;;;;;;;5.21;100.00;101285.25;5093505;28;20202;-75
2022/10/09 05:18:55;;;;;;;15.18;12.25;;;;;;;5.33;100.00;101283.38;5091145;28;20211;-78
2022/10/09 05:21:23;;;;;;;16.52;11.30;;;;;;;5.32;100.00;101286.97;5087437;28;20230;-76
2022/10/09 05:23:49;;;;;;;17.60;12.07;;;;;;;5.23;100.00;101275.44;5094363;28;20286;-76
2022/10/09 05:26:18;;;;;;;12.75;10.90;;;;;;;5.19;100.00;101278.16;5083232;28;20659;-75
2022/10/09 05:28:44;;;;;;;15.98;10.80;;;;;;;5.17;100.00;101278.16;5088282;28;20207;-75
2022/10/09 05:31:18;;;;;;;14.93;11.10;;;;;;;5.22;100.00;101283.47;5088966;28;20227;-74
2022/10/09 05:33:44;;;;;;;20.23;14.15;;;;;;;5.21;100.00;101282.59;5089770;28;20196;-74
2022/10/09 05:36:11;;;;;;;50.05;30.40;;;;;;;5.31;100.00;101286.03;5088201;28;20200;-75
2022/10/09 05:38:39;;;;;;;16.75;12.18;;;;;;;5.23;100.00;101287.94;5084162;28;20196;-75
2022/10/09 05:41:09;;;;;;;15.25;11.43;;;;;;;5.28;100.00;101280.75;5093599;28;20729;-76
2022/10/09 05:43:37;;;;;;;18.77;13.13;;;;;;;5.34;100.00;101282.50;5091667;28;20245;-75
2022/10/09 05:46:05;;;;;;;15.00;11.93;;;;;;;5.29;100.00;101286.97;5091717;28;20213;-75
2022/10/09 05:48:32;;;;;;;17.15;12.35;;;;;;;5.33;100.00;101284.25;5089934;28;20565;-74
2022/10/09 05:51:06;;;;;;;24.42;14.77;;;;;;;5.44;100.00;101282.34;5094122;28;20697;-75
2022/10/09 05:53:33;;;;;;;37.60;23.65;;;;;;;5.55;100.00;101281.38;5092752;28;20232;-74
2022/10/09 05:56:14;;;;;;;24.92;17.52;;;;;;;5.63;100.00;101283.06;5087529;28;20543;-74
2022/10/09 05:58:40;;;;;;;23.33;12.30;;;;;;;5.62;100.00;101281.28;5091533;28;20195;-76
2022/10/09 06:01:08;;;;;;;16.77;12.07;;;;;;;5.61;100.00;101281.31;5093356;28;20222;-75
2022/10/09 06:03:34;;;;;;;17.73;13.13;;;;;;;5.67;100.00;101275.00;5091866;28;20249;-75
2022/10/09 06:06:03;;;;;;;22.92;16.35;;;;;;;5.79;100.00;101277.56;5090943;28;20196;-74
2022/10/09 06:08:31;;;;;;;71.60;42.15;;;;;;;5.99;100.00;101280.91;5092327;28;20225;-74
2022/10/09 06:10:58;;;;;;;32.53;21.20;;;;;;;6.20;100.00;101279.75;5092850;28;20592;-75
2022/10/09 06:13:26;;;;;;;20.27;13.05;;;;;;;6.46;100.00;101276.69;5092543;28;20192;-73
2022/10/09 06:15:53;;;;;;;16.45;11.05;;;;;;;6.34;100.00;101278.66;5094432;28;20657;-74
2022/10/09 06:18:20;;;;;;;14.23;10.90;;;;;;;6.66;100.00;101284.41;5094462;28;20757;-75
2022/10/09 06:20:54;;;;;;;14.15;10.45;;;;;;;6.53;100.00;101282.84;5108762;28;20202;-75
2022/10/09 06:23:21;;;;;;;22.20;13.85;;;;;;;7.01;100.00;101285.69;5111584;28;20200;-75
2022/10/09 06:25:51;;;;;;;32.13;22.70;;;;;;;7.22;100.00;101281.75;5094681;28;20200;-77
2022/10/09 06:28:18;;;;;;;18.83;12.50;;;;;;;7.48;100.00;101275.94;5087070;28;20208;-75
2022/10/09 06:30:47;;;;;;;13.48;8.55;;;;;;;7.71;100.00;101274.56;5093442;28;20243;-77
2022/10/09 06:33:13;;;;;;;12.13;8.50;;;;;;;7.94;100.00;101274.13;5100521;28;20296;-75
2022/10/09 06:35:40;;;;;;;10.13;8.50;;;;;;;8.23;100.00;101265.47;5093913;28;20212;-74
2022/10/09 06:38:06;;;;;;;9.85;8.45;;;;;;;8.62;100.00;101267.31;5091625;28;20284;-75
2022/10/09 06:40:35;;;;;;;8.80;7.68;;;;;;;8.86;100.00;101264.00;5099226;28;20192;-74
2022/10/09 06:43:01;;;;;;;10.73;7.57;;;;;;;9.16;100.00;101266.88;5098150;28;20309;-76
2022/10/09 06:45:28;;;;;;;8.60;7.50;;;;;;;9.71;100.00;101264.50;5102865;28;20742;-74
2022/10/09 06:47:56;;;;;;;11.65;6.88;;;;;;;10.27;100.00;101261.97;5107731;28;20203;-75
2022/10/09 06:50:23;;;;;;;12.27;8.32;;;;;;;10.43;100.00;101262.41;5099889;28;20693;-74
2022/10/09 06:52:50;;;;;;;9.25;7.75;;;;;;;10.55;100.00;101264.72;5087305;28;20220;-74
2022/10/09 06:55:17;;;;;;;12.32;10.40;;;;;;;10.98;100.00;101265.13;5097494;28;20206;-75
2022/10/09 06:57:43;;;;;;;10.07;8.18;;;;;;;11.52;100.00;101269.56;5101887;28;20204;-74
2022/10/09 07:00:11;;;;;;;11.70;7.40;;;;;;;11.52;100.00;101266.00;5100753;28;20195;-75
2022/10/09 07:02:38;;;;;;;12.50;8.48;;;;;;;11.78;100.00;101274.03;5099922;28;20654;-75
2022/10/09 07:05:06;;;;;;;11.15;7.95;;;;;;;12.40;100.00;101258.25;5102243;28;20206;-74
2022/10/09 07:07:33;;;;;;;12.30;8.00;;;;;;;13.27;100.00;101269.97;5099461;28;20202;-75
2022/10/09 07:09:59;;;;;;;7.25;6.65;;;;;;;13.89;99.90;101273.63;5105095;28;20200;-75
2022/10/09 07:12:26;;;;;;;17.48;8.23;;;;;;;14.67;93.31;101272.66;5105915;28;20223;-74
2022/10/09 07:14:53;;;;;;;11.77;10.27;;;;;;;15.03;88.18;101269.09;5095999;28;20204;-74
2022/10/09 07:17:19;;;;;;;18.15;15.85;;;;;;;15.34;84.79;101268.41;5095748;28;20196;-77
2022/10/09 07:19:46;;;;;;;13.80;12.20;;;;;;;15.32;84.70;101274.91;5090529;28;20210;-74
2022/10/09 07:22:13;;;;;;;12.68;10.55;;;;;;;15.95;78.77;101275.22;5087916;28;20223;-74
2022/10/09 07:24:40;;;;;;;10.32;7.20;;;;;;;16.29;75.29;101272.50;5095348;28;20204;-76
2022/10/09 07:27:06;;;;;;;11.30;7.45;;;;;;;16.72;70.29;101273.66;5090607;28;20273;-74
2022/10/09 07:29:33;;;;;;;7.35;6.47;;;;;;;17.08;68.20;101276.13;5092219;28;20192;-74
2022/10/09 07:32:00;;;;;;;8.23;6.25;;;;;;;17.53;65.62;101278.91;5076043;28;20228;-75
2022/10/09 07:34:27;;;;;;;5.60;4.85;;;;;;;18.06;60.85;101274.75;5078487;28;20185;-75
2022/10/09 07:36:55;;;;;;;6.40;4.70;;;;;;;18.06;59.68;101285.66;5096335;28;20196;-74
2022/10/09 07:39:22;;;;;;;7.63;5.33;;;;;;;18.93;57.23;101278.28;5095444;28;20434;-76
2022/10/09 07:41:50;;;;;;;5.43;4.70;;;;;;;18.92;55.49;101279.25;5095258;28;20461;-76
2022/10/09 07:44:17;;;;;;;5.00;4.37;;;;;;;18.81;54.70;101274.50;5089141;28;20946;-76
2022/10/09 07:46:43;;;;;;;111.60;99.53;;;;;;;19.54;54.06;101278.72;5084448;28;20522;-71
2022/10/09 07:49:10;;;;;;;80.40;71.63;;;;;;;19.86;52.82;101279.22;5084740;28;20516;-71
2022/10/09 07:51:37;;;;;;;9.23;5.80;;;;;;;20.04;51.24;101273.44;5095013;28;20481;-71
2022/10/09 07:54:03;;;;;;;11.83;5.70;;;;;;;20.56;49.66;101275.13;5092773;28;20816;-70
2022/10/09 07:56:33;;;;;;;8.80;7.10;;;;;;;20.72;50.02;101280.38;5092799;28;20442;-71
2022/10/09 07:59:01;;;;;;;10.97;8.33;;;;;;;21.44;48.90;101278.56;5098387;28;21033;-71
2022/10/09 08:01:29;;;;;;;13.77;5.50;;;;;;;21.57;47.03;101274.84;5093028;28;20537;-71
2022/10/09 08:03:56;;;;;;;7.70;4.97;;;;;;;21.57;45.81;101275.75;5105931;28;20533;-71
2022/10/09 08:06:23;;;;;;;6.33;5.07;;;;;;;22.63;43.71;101275.50;5102974;28;20440;-71
2022/10/09 08:08:50;;;;;;;6.10;3.97;;;;;;;21.76;45.15;101275.16;5097320;28;20461;-71
2022/10/09 08:11:18;;;;;;;5.30;4.30;;;;;;;21.60;44.74;101277.38;5087036;28;20909;-68
2022/10/09 08:13:46;;;;;;;6.00;4.20;;;;;;;21.83;45.20;101273.69;5076098;28;20819;-69
2022/10/09 08:16:13;;;;;;;5.00;4.57;;;;;;;23.08;43.64;101266.31;5075376;28;20442;-69
2022/10/09 08:18:40;;;;;;;4.83;3.97;;;;;;;23.00;42.78;101271.59;5078156;28;20435;-71
2022/10/09 08:21:08;;;;;;;5.80;3.83;;;;;;;23.45;42.08;101264.06;5078762;28;20451;-72
2022/10/09 08:23:35;;;;;;;4.90;4.40;;;;;;;23.52;41.54;101258.91;5078097;28;20460;-68
2022/10/09 08:26:03;;;;;;;6.53;4.20;;;;;;;22.84;42.90;101253.63;5092411;28;20791;-72
2022/10/09 08:28:29;;;;;;;4.87;3.73;;;;;;;23.35;41.83;101254.00;5084879;28;20531;-72
2022/10/09 08:30:57;;;;;;;4.90;3.17;;;;;;;23.89;40.50;101252.97;5092750;28;20488;-70
2022/10/09 08:33:24;;;;;;;5.33;3.73;;;;;;;24.40;39.75;101257.59;5091790;28;20448;-71
2022/10/09 08:35:52;;;;;;;6.10;2.90;;;;;;;25.28;38.08;101257.81;5085768;28;20445;-70
2022/10/09 08:38:19;;;;;;;4.67;3.20;;;;;;;25.53;37.21;101256.34;5095047;28;20452;-73
2022/10/09 08:40:54;;;;;;;5.57;3.50;;;;;;;25.51;37.21;101259.28;5105745;28;20510;-71
2022/10/09 08:43:28;;;;;;;5.17;2.93;;;;;;;26.35;35.93;101268.72;5100734;28;20468;-70
2022/10/09 08:45:58;;;;;;;5.50;3.10;;;;;;;27.12;35.34;101258.28;5098312;28;20422;-72
2022/10/09 08:48:27;;;;;;;4.47;3.00;;;;;;;27.31;34.62;101269.19;5095013;28;20441;-72
2022/10/09 08:50:56;;;;;;;3.40;3.07;;;;;;;27.91;33.82;101251.94;5093786;28;20851;-72
2022/10/09 08:53:33;;;;;;;5.00;3.50;;;;;;;27.46;33.60;101252.94;5095421;28;20442;-71
2022/10/09 08:56:03;;;;;;;4.20;2.90;;;;;;;27.87;33.46;101253.28;5111509;28;20505;-74
2022/10/09 08:58:32;;;;;;;3.67;2.80;;;;;;;26.79;34.51;101244.94;5095596;28;20430;-75
2022/10/09 09:01:06;;;;;;;5.00;3.90;;;;;;;28.08;33.31;101236.28;5094042;28;20445;-74
2022/10/09 09:03:49;;;;;;;5.00;3.93;;;;;;;28.86;32.42;101241.69;5093780;28;20907;-71
2022/10/09 09:06:26;;;;;;;4.50;3.50;;;;;;;28.64;32.68;101236.75;5088357;28;20798;-70
2022/10/09 09:09:00;;;;;;;4.90;2.90;;;;;;;29.11;31.89;101236.22;5075423;28;20793;-75
2022/10/09 09:11:37;;;;;;;6.10;3.43;;;;;;;29.19;31.55;101235.38;5095606;28;20569;-75
2022/10/09 09:14:19;;;;;;;7.70;5.90;;;;;;;29.13;31.84;101228.63;5096340;28;20406;-77
2022/10/09 09:16:54;;;;;;;3.23;2.73;;;;;;;28.83;31.28;101230.94;5096599;28;20464;-75
2022/10/09 09:19:47;;;;;;;4.80;2.80;;;;;;;29.44;30.90;101227.94;5096285;28;20566;-75
2022/10/09 09:22:15;;;;;;;4.03;3.20;;;;;;;29.73;30.52;101228.28;5092769;28;20845;-75
2022/10/09 09:24:46;;;;;;;8.40;4.00;;;;;;;30.65;30.11;101224.25;5095851;28;20507;-75
2022/10/09 09:27:18;;;;;;;6.10;3.37;;;;;;;31.09;29.38;101218.97;5095713;28;20899;-75
2022/10/09 09:29:50;;;;;;;4.53;3.10;;;;;;;30.80;29.73;101216.88;5095608;28;20419;-76
2022/10/09 09:32:22;;;;;;;4.17;2.60;;;;;;;30.55;29.63;101204.97;5094918;28;20490;-76
2022/10/09 09:34:49;;;;;;;4.60;4.20;;;;;;;31.01;29.36;101204.25;5094631;28;20422;-75
2022/10/09 09:37:16;;;;;;;3.50;3.10;;;;;;;30.77;29.52;101198.59;5094831;28;20441;-76
2022/10/09 09:39:43;;;;;;;4.23;3.10;;;;;;;31.04;29.47;101199.16;5094098;28;20438;-75
2022/10/09 09:42:16;;;;;;;3.53;3.13;;;;;;;31.89;28.53;101197.25;5095144;28;20978;-76
2022/10/09 09:44:50;;;;;;;3.57;2.30;;;;;;;32.01;28.14;101192.09;5094586;28;20520;-75
2022/10/09 09:47:25;;;;;;;6.63;2.50;;;;;;;32.01;28.24;101187.38;5094868;28;20426;-75
2022/10/09 09:49:57;;;;;;;4.03;2.73;;;;;;;30.60;29.52;101179.44;5094282;28;20851;-75
2022/10/09 09:52:26;;;;;;;4.30;2.53;;;;;;;31.20;28.93;101183.41;5094289;28;20488;-76
2022/10/09 09:54:56;;;;;;;4.03;2.20;;;;;;;30.90;29.35;101180.50;5094329;28;20444;-76
2022/10/09 09:57:30;;;;;;;4.10;2.50;;;;;;;30.17;29.81;101170.59;5094923;28;20821;-76
2022/10/09 10:00:18;;;;;;;3.00;2.10;;;;;;;30.20;30.01;101164.66;5095516;28;20797;-76
2022/10/09 10:02:46;;;;;;;4.83;2.37;;;;;;;30.27;29.97;101163.78;5093750;28;21004;-76
2022/10/09 10:05:21;;;;;;;2.87;2.30;;;;;;;30.03;29.94;101156.41;5096648;28;20429;-74
2022/10/09 10:07:50;;;;;;;3.87;2.30;;;;;;;30.80;29.44;101150.13;5096756;28;20437;-74
2022/10/09 10:10:19;;;;;;;3.07;1.90;;;;;;;30.93;28.97;101149.53;5094468;28;20480;-75
2022/10/09 10:12:52;;;;;;;5.80;3.00;;;;;;;30.40;29.24;101157.66;5094052;28;20831;-74
2022/10/09 10:15:22;;;;;;;4.17;2.70;;;;;;;30.32;29.89;101144.69;5094192;28;20426;-75
2022/10/09 10:17:57;;;;;;;2.30;2.10;;;;;;;30.02;30.43;101146.31;5093712;28;20444;-74
2022/10/09 10:20:24;;;;;;;2.20;1.53;;;;;;;31.39;29.19;101141.16;5095821;28;20425;-74
2022/10/09 10:22:53;;;;;;;2.60;2.13;;;;;;;30.81;29.57;101145.44;5107248;28;20629;-74
2022/10/09 10:25:24;;;;;;;2.37;2.00;;;;;;;31.77;28.39;101139.22;5110171;28;20461;-74
2022/10/09 10:27:56;;;;;;;3.20;2.20;;;;;;;32.03;28.23;101142.63;5097592;28;20427;-76
2022/10/09 10:30:22;;;;;;;3.37;2.00;;;;;;;31.88;28.08;101139.81;5095917;28;20427;-75
2022/10/09 10:32:57;;;;;;;3.47;2.03;;;;;;;30.33;30.06;101135.28;5095252;28;20486;-74
2022/10/09 10:35:28;;;;;;;4.70;2.30;;;;;;;30.17;30.09;101128.91;5102774;28;20427;-73
2022/10/09 10:38:01;;;;;;;3.43;2.10;;;;;;;27.77;32.77;101114.09;5105398;28;20429;-75
2022/10/09 10:40:32;;;;;;;4.03;2.63;;;;;;;27.97;32.66;101120.28;5098710;28;20418;-75
2022/10/09 10:43:13;;;;;;;4.53;2.53;;;;;;;27.81;32.87;101108.09;5098648;28;20446;-75
2022/10/09 10:45:49;;;;;;;3.00;2.27;;;;;;;27.64;33.51;101109.88;5096894;28;20433;-75
2022/10/09 10:48:21;;;;;;;2.93;2.43;;;;;;;28.49;32.85;101100.75;5099199;28;20420;-72
2022/10/09 10:50:58;;;;;;;4.00;2.50;;;;;;;30.99;30.29;101106.22;5098708;28;20571;-75
2022/10/09 10:53:38;;;;;;;3.30;2.10;;;;;;;30.16;30.03;101102.19;5105727;28;20465;-75
2022/10/09 10:56:07;;;;;;;3.07;2.10;;;;;;;29.45;31.63;101096.50;5104384;28;20445;-73
2022/10/09 10:58:47;;;;;;;3.13;2.30;;;;;;;29.65;30.71;101099.75;5102447;28;20445;-75
2022/10/09 11:01:25;;;;;;;3.70;2.00;;;;;;;28.94;31.00;101093.03;5100771;28;20465;-74
2022/10/09 11:04:20;;;;;;;3.87;2.30;;;;;;;27.73;32.78;101087.81;5095965;28;20448;-74
2022/10/09 11:06:56;;;;;;;3.63;2.30;;;;;;;29.21;31.33;101086.28;5094940;28;20419;-75
2022/10/09 11:09:31;;;;;;;3.77;2.23;;;;;;;30.18;30.30;101075.94;5094954;28;20428;-75
2022/10/09 11:12:06;;;;;;;5.53;1.97;;;;;;;30.31;29.65;101070.69;5094050;28;20853;-74
2022/10/09 11:14:52;;;;;;;2.87;2.27;;;;;;;30.24;30.01;101068.81;5102250;28;20512;-74
2022/10/09 11:17:27;;;;;;;3.30;2.30;;;;;;;31.07;29.67;101070.88;5101562;28;20493;-74
2022/10/09 11:20:17;;;;;;;3.00;1.97;;;;;;;31.21;29.58;101060.81;5101249;28;20422;-75
2022/10/09 11:22:58;;;;;;;3.80;2.30;;;;;;;33.12;27.51;101064.53;5101921;28;20458;-78
2022/10/09 11:25:30;;;;;;;2.60;1.93;;;;;;;30.44;28.50;101058.13;5102003;28;20558;-73
2022/10/09 11:28:01;;;;;;;3.63;2.00;;;;;;;29.03;30.27;101054.03;5101333;28;20430;-74